sensor_id;sensor_type;location;lat;lon;timestamp;temperature;humidity
67799;SHT30;54596;43.216;27.904;2023-06-05T00:01:17;15.11;79.24
67799;SHT30;54596;43.216;27.904;2023-06-05T00:03:42;15.09;80.33
67799;SHT30;54596;43.216;27.904;2023-06-05T00:06:08;15.05;81.29
67799;SHT30;54596;43.216;27.904;2023-06-05T00:08:35;15.04;81.66
67799;SHT30;54596;43.216;27.904;2023-06-05T00:11:00;15.02;81.93
67799;SHT30;54596;43.216;27.904;2023-06-05T00:13:25;14.99;82.46
67799;SHT30;54596;43.216;27.904;2023-06-05T00:15:51;15.02;83.05
67799;SHT30;54596;43.216;27.904;2023-06-05T00:18:18;15.01;83.34
67799;SHT30;54596;43.216;27.904;2023-06-05T00:20:43;14.99;83.68
67799;SHT30;54596;43.216;27.904;2023-06-05T00:23:09;15.04;83.43
67799;SHT30;54596;43.216;27.904;2023-06-05T00:25:36;14.97;83.44
67799;SHT30;54596;43.216;27.904;2023-06-05T00:28:02;14.92;83.60
67799;SHT30;54596;43.216;27.904;2023-06-05T00:30:27;14.88;83.82
67799;SHT30;54596;43.216;27.904;2023-06-05T00:32:53;14.92;84.01
67799;SHT30;54596;43.216;27.904;2023-06-05T00:35:18;14.94;84.50
67799;SHT30;54596;43.216;27.904;2023-06-05T00:37:44;14.88;84.61
67799;SHT30;54596;43.216;27.904;2023-06-05T00:40:12;14.88;84.58
67799;SHT30;54596;43.216;27.904;2023-06-05T00:42:38;14.90;84.19
67799;SHT30;54596;43.216;27.904;2023-06-05T00:45:04;14.83;84.45
67799;SHT30;54596;43.216;27.904;2023-06-05T00:47:30;14.73;84.30
67799;SHT30;54596;43.216;27.904;2023-06-05T00:49:56;14.76;83.96
67799;SHT30;54596;43.216;27.904;2023-06-05T00:52:23;14.70;84.15
67799;SHT30;54596;43.216;27.904;2023-06-05T00:54:48;14.63;84.45
67799;SHT30;54596;43.216;27.904;2023-06-05T00:57:14;14.59;84.68
67799;SHT30;54596;43.216;27.904;2023-06-05T00:59:40;14.55;84.48
67799;SHT30;54596;43.216;27.904;2023-06-05T01:02:05;14.50;84.33
67799;SHT30;54596;43.216;27.904;2023-06-05T01:04:31;14.45;84.35
67799;SHT30;54596;43.216;27.904;2023-06-05T01:07:02;14.45;84.10
67799;SHT30;54596;43.216;27.904;2023-06-05T01:09:29;14.43;84.03
67799;SHT30;54596;43.216;27.904;2023-06-05T01:14:31;14.33;84.27
67799;SHT30;54596;43.216;27.904;2023-06-05T01:16:59;14.32;84.06
67799;SHT30;54596;43.216;27.904;2023-06-05T01:19:28;14.28;83.64
67799;SHT30;54596;43.216;27.904;2023-06-05T01:22:03;14.26;83.45
67799;SHT30;54596;43.216;27.904;2023-06-05T01:24:28;14.26;83.19
67799;SHT30;54596;43.216;27.904;2023-06-05T01:30:03;14.22;83.49
67799;SHT30;54596;43.216;27.904;2023-06-05T01:35:21;14.17;84.10
67799;SHT30;54596;43.216;27.904;2023-06-05T01:37:54;14.18;84.19
67799;SHT30;54596;43.216;27.904;2023-06-05T01:40:23;14.19;84.32
67799;SHT30;54596;43.216;27.904;2023-06-05T01:42:50;14.29;84.64
67799;SHT30;54596;43.216;27.904;2023-06-05T01:45:17;14.26;84.97
67799;SHT30;54596;43.216;27.904;2023-06-05T01:47:42;14.25;85.16
67799;SHT30;54596;43.216;27.904;2023-06-05T01:50:09;14.22;85.46
67799;SHT30;54596;43.216;27.904;2023-06-05T01:52:38;14.17;85.47
67799;SHT30;54596;43.216;27.904;2023-06-05T01:55:06;14.14;85.46
67799;SHT30;54596;43.216;27.904;2023-06-05T01:57:32;14.10;85.58
67799;SHT30;54596;43.216;27.904;2023-06-05T01:59:59;14.11;85.37
67799;SHT30;54596;43.216;27.904;2023-06-05T02:02:26;14.02;85.40
67799;SHT30;54596;43.216;27.904;2023-06-05T02:04:54;14.01;85.06
67799;SHT30;54596;43.216;27.904;2023-06-05T02:07:20;14.00;84.62
67799;SHT30;54596;43.216;27.904;2023-06-05T02:09:46;13.97;84.53
67799;SHT30;54596;43.216;27.904;2023-06-05T02:12:12;13.97;83.99
67799;SHT30;54596;43.216;27.904;2023-06-05T02:14:39;13.95;84.08
67799;SHT30;54596;43.216;27.904;2023-06-05T02:17:10;13.95;84.02
67799;SHT30;54596;43.216;27.904;2023-06-05T02:19:41;13.97;83.81
67799;SHT30;54596;43.216;27.904;2023-06-05T02:22:06;13.94;83.80
67799;SHT30;54596;43.216;27.904;2023-06-05T02:24:33;14.00;83.83
67799;SHT30;54596;43.216;27.904;2023-06-05T02:26:58;13.95;84.05
67799;SHT30;54596;43.216;27.904;2023-06-05T02:29:24;13.91;84.22
67799;SHT30;54596;43.216;27.904;2023-06-05T02:31:49;13.94;84.10
67799;SHT30;54596;43.216;27.904;2023-06-05T02:34:15;13.91;84.21
67799;SHT30;54596;43.216;27.904;2023-06-05T02:36:42;13.91;84.05
67799;SHT30;54596;43.216;27.904;2023-06-05T02:39:10;13.90;83.85
67799;SHT30;54596;43.216;27.904;2023-06-05T02:41:36;13.85;83.53
67799;SHT30;54596;43.216;27.904;2023-06-05T02:44:02;13.80;83.76
67799;SHT30;54596;43.216;27.904;2023-06-05T02:46:27;13.80;83.57
67799;SHT30;54596;43.216;27.904;2023-06-05T02:48:53;13.81;83.42
67799;SHT30;54596;43.216;27.904;2023-06-05T02:51:19;13.84;83.36
67799;SHT30;54596;43.216;27.904;2023-06-05T02:53:45;13.88;83.10
67799;SHT30;54596;43.216;27.904;2023-06-05T02:56:11;13.93;82.66
67799;SHT30;54596;43.216;27.904;2023-06-05T02:58:38;13.91;82.26
67799;SHT30;54596;43.216;27.904;2023-06-05T03:01:05;13.91;81.83
67799;SHT30;54596;43.216;27.904;2023-06-05T03:03:33;13.97;81.96
67799;SHT30;54596;43.216;27.904;2023-06-05T03:06:00;13.98;81.86
67799;SHT30;54596;43.216;27.904;2023-06-05T03:08:36;14.11;81.41
67799;SHT30;54596;43.216;27.904;2023-06-05T03:11:05;14.10;81.08
67799;SHT30;54596;43.216;27.904;2023-06-05T03:13:31;14.04;81.37
67799;SHT30;54596;43.216;27.904;2023-06-05T03:15:59;14.02;80.96
67799;SHT30;54596;43.216;27.904;2023-06-05T03:18:27;14.05;81.48
67799;SHT30;54596;43.216;27.904;2023-06-05T03:20:54;14.08;81.58
67799;SHT30;54596;43.216;27.904;2023-06-05T03:23:26;14.11;82.10
67799;SHT30;54596;43.216;27.904;2023-06-05T03:25:56;14.18;81.46
67799;SHT30;54596;43.216;27.904;2023-06-05T03:28:22;14.21;82.32
67799;SHT30;54596;43.216;27.904;2023-06-05T03:30:48;14.26;81.71
67799;SHT30;54596;43.216;27.904;2023-06-05T03:33:15;14.36;81.60
67799;SHT30;54596;43.216;27.904;2023-06-05T03:35:41;14.32;81.96
67799;SHT30;54596;43.216;27.904;2023-06-05T03:38:14;14.36;82.07
67799;SHT30;54596;43.216;27.904;2023-06-05T03:40:40;14.60;82.03
67799;SHT30;54596;43.216;27.904;2023-06-05T03:43:06;14.70;82.16
67799;SHT30;54596;43.216;27.904;2023-06-05T03:45:36;14.76;82.99
67799;SHT30;54596;43.216;27.904;2023-06-05T03:48:03;14.91;82.83
67799;SHT30;54596;43.216;27.904;2023-06-05T03:50:29;14.81;82.43
67799;SHT30;54596;43.216;27.904;2023-06-05T03:52:55;14.85;82.58
67799;SHT30;54596;43.216;27.904;2023-06-05T03:55:36;14.87;82.31
67799;SHT30;54596;43.216;27.904;2023-06-05T03:58:17;15.05;81.48
67799;SHT30;54596;43.216;27.904;2023-06-05T04:00:46;15.15;81.51
67799;SHT30;54596;43.216;27.904;2023-06-05T04:03:14;15.08;81.53
67799;SHT30;54596;43.216;27.904;2023-06-05T04:05:40;15.25;80.78
67799;SHT30;54596;43.216;27.904;2023-06-05T04:08:06;15.16;80.88
67799;SHT30;54596;43.216;27.904;2023-06-05T04:10:32;15.18;81.13
67799;SHT30;54596;43.216;27.904;2023-06-05T04:12:58;15.32;80.10
67799;SHT30;54596;43.216;27.904;2023-06-05T04:15:23;15.39;81.22
67799;SHT30;54596;43.216;27.904;2023-06-05T04:17:49;15.42;80.10
67799;SHT30;54596;43.216;27.904;2023-06-05T04:20:15;15.46;79.90
67799;SHT30;54596;43.216;27.904;2023-06-05T04:22:41;15.50;78.83
67799;SHT30;54596;43.216;27.904;2023-06-05T04:25:07;15.51;78.54
67799;SHT30;54596;43.216;27.904;2023-06-05T04:27:37;15.56;78.99
67799;SHT30;54596;43.216;27.904;2023-06-05T04:30:04;15.60;78.91
67799;SHT30;54596;43.216;27.904;2023-06-05T04:32:30;15.68;78.95
67799;SHT30;54596;43.216;27.904;2023-06-05T04:35:02;15.76;78.85
67799;SHT30;54596;43.216;27.904;2023-06-05T04:37:28;15.84;78.46
67799;SHT30;54596;43.216;27.904;2023-06-05T04:39:54;15.97;77.67
67799;SHT30;54596;43.216;27.904;2023-06-05T04:42:20;16.05;77.79
67799;SHT30;54596;43.216;27.904;2023-06-05T04:44:57;16.12;77.00
67799;SHT30;54596;43.216;27.904;2023-06-05T04:47:23;16.22;77.16
67799;SHT30;54596;43.216;27.904;2023-06-05T04:49:49;16.36;77.09
67799;SHT30;54596;43.216;27.904;2023-06-05T04:52:19;16.45;77.12
67799;SHT30;54596;43.216;27.904;2023-06-05T04:54:49;16.57;76.85
67799;SHT30;54596;43.216;27.904;2023-06-05T04:57:15;16.67;76.39
67799;SHT30;54596;43.216;27.904;2023-06-05T04:59:42;16.78;75.91
67799;SHT30;54596;43.216;27.904;2023-06-05T05:02:08;16.95;75.53
67799;SHT30;54596;43.216;27.904;2023-06-05T05:04:34;17.11;75.50
67799;SHT30;54596;43.216;27.904;2023-06-05T05:07:00;17.29;75.53
67799;SHT30;54596;43.216;27.904;2023-06-05T05:09:30;17.50;75.32
67799;SHT30;54596;43.216;27.904;2023-06-05T05:11:56;17.61;75.07
67799;SHT30;54596;43.216;27.904;2023-06-05T05:14:24;17.88;75.25
67799;SHT30;54596;43.216;27.904;2023-06-05T05:16:51;18.09;74.76
67799;SHT30;54596;43.216;27.904;2023-06-05T05:19:16;18.33;74.58
67799;SHT30;54596;43.216;27.904;2023-06-05T05:21:42;18.68;73.53
67799;SHT30;54596;43.216;27.904;2023-06-05T05:24:07;19.20;72.57
67799;SHT30;54596;43.216;27.904;2023-06-05T05:26:33;19.61;72.01
67799;SHT30;54596;43.216;27.904;2023-06-05T05:28:58;19.93;70.45
67799;SHT30;54596;43.216;27.904;2023-06-05T05:31:24;21.00;67.76
67799;SHT30;54596;43.216;27.904;2023-06-05T05:33:50;23.48;61.27
67799;SHT30;54596;43.216;27.904;2023-06-05T05:36:15;25.64;56.00
67799;SHT30;54596;43.216;27.904;2023-06-05T05:38:41;27.45;52.21
67799;SHT30;54596;43.216;27.904;2023-06-05T05:41:06;28.28;50.77
67799;SHT30;54596;43.216;27.904;2023-06-05T05:43:32;28.58;50.14
67799;SHT30;54596;43.216;27.904;2023-06-05T05:45:57;28.79;48.58
67799;SHT30;54596;43.216;27.904;2023-06-05T05:48:23;30.07;47.23
67799;SHT30;54596;43.216;27.904;2023-06-05T05:50:49;30.07;46.94
67799;SHT30;54596;43.216;27.904;2023-06-05T05:53:14;30.49;46.10
67799;SHT30;54596;43.216;27.904;2023-06-05T05:55:40;30.02;46.87
67799;SHT30;54596;43.216;27.904;2023-06-05T05:58:05;29.95;45.88
67799;SHT30;54596;43.216;27.904;2023-06-05T06:00:31;30.68;44.94
67799;SHT30;54596;43.216;27.904;2023-06-05T06:02:57;31.55;42.64
67799;SHT30;54596;43.216;27.904;2023-06-05T06:05:23;31.21;42.92
67799;SHT30;54596;43.216;27.904;2023-06-05T06:07:51;32.40;41.44
67799;SHT30;54596;43.216;27.904;2023-06-05T06:10:16;32.30;41.08
67799;SHT30;54596;43.216;27.904;2023-06-05T06:12:43;31.82;40.35
67799;SHT30;54596;43.216;27.904;2023-06-05T06:15:09;31.75;39.12
67799;SHT30;54596;43.216;27.904;2023-06-05T06:17:37;30.76;38.11
67799;SHT30;54596;43.216;27.904;2023-06-05T06:20:03;30.57;37.52
67799;SHT30;54596;43.216;27.904;2023-06-05T06:22:29;29.52;37.71
67799;SHT30;54596;43.216;27.904;2023-06-05T06:24:54;28.28;39.25
67799;SHT30;54596;43.216;27.904;2023-06-05T06:27:20;27.34;40.36
67799;SHT30;54596;43.216;27.904;2023-06-05T06:29:51;26.61;41.60
67799;SHT30;54596;43.216;27.904;2023-06-05T06:32:20;26.65;41.43
67799;SHT30;54596;43.216;27.904;2023-06-05T06:34:45;27.22;41.69
67799;SHT30;54596;43.216;27.904;2023-06-05T06:37:15;28.23;39.23
67799;SHT30;54596;43.216;27.904;2023-06-05T06:39:44;28.95;38.66
67799;SHT30;54596;43.216;27.904;2023-06-05T06:42:10;30.47;38.07
67799;SHT30;54596;43.216;27.904;2023-06-05T06:44:37;30.45;37.81
67799;SHT30;54596;43.216;27.904;2023-06-05T06:47:02;29.76;36.99
67799;SHT30;54596;43.216;27.904;2023-06-05T06:49:28;29.26;36.39
67799;SHT30;54596;43.216;27.904;2023-06-05T06:51:54;28.49;37.52
67799;SHT30;54596;43.216;27.904;2023-06-05T06:54:21;29.00;38.04
67799;SHT30;54596;43.216;27.904;2023-06-05T06:56:48;29.09;38.35
67799;SHT30;54596;43.216;27.904;2023-06-05T06:59:17;30.42;37.12
67799;SHT30;54596;43.216;27.904;2023-06-05T07:01:45;31.31;37.07
67799;SHT30;54596;43.216;27.904;2023-06-05T07:04:20;30.76;36.41
67799;SHT30;54596;43.216;27.904;2023-06-05T07:06:46;30.33;35.93
67799;SHT30;54596;43.216;27.904;2023-06-05T07:09:13;31.17;36.45
67799;SHT30;54596;43.216;27.904;2023-06-05T07:11:39;31.73;34.91
67799;SHT30;54596;43.216;27.904;2023-06-05T07:14:04;31.17;35.55
67799;SHT30;54596;43.216;27.904;2023-06-05T07:16:31;31.00;36.62
67799;SHT30;54596;43.216;27.904;2023-06-05T07:18:57;31.73;36.74
67799;SHT30;54596;43.216;27.904;2023-06-05T07:21:23;32.99;35.81
67799;SHT30;54596;43.216;27.904;2023-06-05T07:23:49;32.83;35.81
67799;SHT30;54596;43.216;27.904;2023-06-05T07:26:19;32.95;34.77
67799;SHT30;54596;43.216;27.904;2023-06-05T07:28:46;34.68;32.85
67799;SHT30;54596;43.216;27.904;2023-06-05T07:31:13;33.03;34.98
67799;SHT30;54596;43.216;27.904;2023-06-05T07:33:39;32.14;36.13
67799;SHT30;54596;43.216;27.904;2023-06-05T07:36:05;32.61;36.03
67799;SHT30;54596;43.216;27.904;2023-06-05T07:38:30;32.69;35.83
67799;SHT30;54596;43.216;27.904;2023-06-05T07:40:57;32.68;35.31
67799;SHT30;54596;43.216;27.904;2023-06-05T07:43:24;32.95;36.48
67799;SHT30;54596;43.216;27.904;2023-06-05T07:45:50;33.02;37.07
67799;SHT30;54596;43.216;27.904;2023-06-05T07:48:15;32.99;38.18
67799;SHT30;54596;43.216;27.904;2023-06-05T07:50:41;34.64;36.09
67799;SHT30;54596;43.216;27.904;2023-06-05T07:53:06;34.64;36.30
67799;SHT30;54596;43.216;27.904;2023-06-05T07:55:32;33.83;37.34
67799;SHT30;54596;43.216;27.904;2023-06-05T07:57:57;33.61;38.98
67799;SHT30;54596;43.216;27.904;2023-06-05T08:00:25;32.23;41.18
67799;SHT30;54596;43.216;27.904;2023-06-05T08:02:52;30.44;43.24
67799;SHT30;54596;43.216;27.904;2023-06-05T08:05:18;30.07;44.78
67799;SHT30;54596;43.216;27.904;2023-06-05T08:07:44;30.07;43.86
67799;SHT30;54596;43.216;27.904;2023-06-05T08:10:11;30.03;43.13
67799;SHT30;54596;43.216;27.904;2023-06-05T08:12:37;29.51;43.94
67799;SHT30;54596;43.216;27.904;2023-06-05T08:15:02;28.83;44.04
67799;SHT30;54596;43.216;27.904;2023-06-05T08:17:28;28.12;44.74
67799;SHT30;54596;43.216;27.904;2023-06-05T08:19:54;26.85;46.28
67799;SHT30;54596;43.216;27.904;2023-06-05T08:22:19;26.19;47.33
67799;SHT30;54596;43.216;27.904;2023-06-05T08:24:45;25.76;47.52
67799;SHT30;54596;43.216;27.904;2023-06-05T08:27:10;26.48;46.94
67799;SHT30;54596;43.216;27.904;2023-06-05T08:29:36;26.19;47.66
67799;SHT30;54596;43.216;27.904;2023-06-05T08:32:05;25.88;48.25
67799;SHT30;54596;43.216;27.904;2023-06-05T08:34:31;25.23;50.38
67799;SHT30;54596;43.216;27.904;2023-06-05T08:36:57;25.43;50.85
67799;SHT30;54596;43.216;27.904;2023-06-05T08:39:25;24.82;50.86
67799;SHT30;54596;43.216;27.904;2023-06-05T08:41:57;24.75;51.07
67799;SHT30;54596;43.216;27.904;2023-06-05T08:44:29;24.69;51.62
67799;SHT30;54596;43.216;27.904;2023-06-05T08:47:00;24.54;52.74
67799;SHT30;54596;43.216;27.904;2023-06-05T08:49:27;24.27;51.79
67799;SHT30;54596;43.216;27.904;2023-06-05T08:51:58;24.21;54.29
67799;SHT30;54596;43.216;27.904;2023-06-05T08:54:26;24.06;54.34
67799;SHT30;54596;43.216;27.904;2023-06-05T08:56:52;23.74;54.28
67799;SHT30;54596;43.216;27.904;2023-06-05T08:59:18;23.75;53.78
67799;SHT30;54596;43.216;27.904;2023-06-05T09:01:47;23.65;52.21
67799;SHT30;54596;43.216;27.904;2023-06-05T09:04:12;23.68;53.60
67799;SHT30;54596;43.216;27.904;2023-06-05T09:06:38;23.31;55.00
67799;SHT30;54596;43.216;27.904;2023-06-05T09:09:05;23.43;54.87
67799;SHT30;54596;43.216;27.904;2023-06-05T09:11:31;23.65;53.47
67799;SHT30;54596;43.216;27.904;2023-06-05T09:14:00;23.27;53.84
67799;SHT30;54596;43.216;27.904;2023-06-05T09:16:37;22.68;55.44
67799;SHT30;54596;43.216;27.904;2023-06-05T09:19:04;22.67;55.81
67799;SHT30;54596;43.216;27.904;2023-06-05T09:21:30;22.78;54.17
67799;SHT30;54596;43.216;27.904;2023-06-05T09:26:50;22.73;55.25
67799;SHT30;54596;43.216;27.904;2023-06-05T09:29:29;22.62;54.54
67799;SHT30;54596;43.216;27.904;2023-06-05T09:31:59;22.69;53.95
67799;SHT30;54596;43.216;27.904;2023-06-05T09:34:26;22.58;54.08
67799;SHT30;54596;43.216;27.904;2023-06-05T09:36:53;22.57;54.14
67799;SHT30;54596;43.216;27.904;2023-06-05T09:39:21;22.57;54.96
67799;SHT30;54596;43.216;27.904;2023-06-05T09:41:48;22.61;54.31
67799;SHT30;54596;43.216;27.904;2023-06-05T09:44:17;22.64;54.75
67799;SHT30;54596;43.216;27.904;2023-06-05T09:46:53;22.92;54.43
67799;SHT30;54596;43.216;27.904;2023-06-05T09:49:20;22.92;53.16
67799;SHT30;54596;43.216;27.904;2023-06-05T09:51:46;22.57;52.48
67799;SHT30;54596;43.216;27.904;2023-06-05T09:54:13;22.68;53.49
67799;SHT30;54596;43.216;27.904;2023-06-05T09:56:46;22.84;53.29
67799;SHT30;54596;43.216;27.904;2023-06-05T09:59:18;22.91;53.43
67799;SHT30;54596;43.216;27.904;2023-06-05T10:01:44;22.85;52.77
67799;SHT30;54596;43.216;27.904;2023-06-05T10:04:11;22.60;52.80
67799;SHT30;54596;43.216;27.904;2023-06-05T10:06:38;22.50;53.33
67799;SHT30;54596;43.216;27.904;2023-06-05T10:09:06;22.41;54.47
67799;SHT30;54596;43.216;27.904;2023-06-05T10:11:32;22.44;54.47
67799;SHT30;54596;43.216;27.904;2023-06-05T10:13:58;22.55;54.15
67799;SHT30;54596;43.216;27.904;2023-06-05T10:16:26;22.50;55.59
67799;SHT30;54596;43.216;27.904;2023-06-05T10:18:56;22.33;55.23
67799;SHT30;54596;43.216;27.904;2023-06-05T10:21:24;22.53;55.93
67799;SHT30;54596;43.216;27.904;2023-06-05T10:24:03;22.32;55.68
67799;SHT30;54596;43.216;27.904;2023-06-05T10:35:00;22.19;54.87
67799;SHT30;54596;43.216;27.904;2023-06-05T10:39:58;22.02;55.71
67799;SHT30;54596;43.216;27.904;2023-06-05T10:42:26;21.93;54.37
67799;SHT30;54596;43.216;27.904;2023-06-05T10:44:52;21.85;55.61
67799;SHT30;54596;43.216;27.904;2023-06-05T10:47:48;21.75;56.12
67799;SHT30;54596;43.216;27.904;2023-06-05T10:52:43;21.96;55.20
67799;SHT30;54596;43.216;27.904;2023-06-05T10:55:10;21.91;53.74
67799;SHT30;54596;43.216;27.904;2023-06-05T11:00:21;22.10;52.53
67799;SHT30;54596;43.216;27.904;2023-06-05T11:02:47;22.12;53.06
67799;SHT30;54596;43.216;27.904;2023-06-05T11:05:14;22.12;53.37
67799;SHT30;54596;43.216;27.904;2023-06-05T11:07:41;21.92;52.55
67799;SHT30;54596;43.216;27.904;2023-06-05T11:15:15;21.91;51.08
67799;SHT30;54596;43.216;27.904;2023-06-05T11:17:42;21.96;52.41
67799;SHT30;54596;43.216;27.904;2023-06-05T11:27:59;22.14;56.11
67799;SHT30;54596;43.216;27.904;2023-06-05T11:30:45;21.95;55.75
67799;SHT30;54596;43.216;27.904;2023-06-05T11:33:18;21.73;54.38
67799;SHT30;54596;43.216;27.904;2023-06-05T11:35:47;21.69;57.82
67799;SHT30;54596;43.216;27.904;2023-06-05T11:38:15;21.37;55.76
67799;SHT30;54596;43.216;27.904;2023-06-05T11:40:42;21.43;54.37
67799;SHT30;54596;43.216;27.904;2023-06-05T11:43:10;21.37;56.50
67799;SHT30;54596;43.216;27.904;2023-06-05T11:45:37;21.44;55.49
67799;SHT30;54596;43.216;27.904;2023-06-05T11:48:13;21.61;57.34
67799;SHT30;54596;43.216;27.904;2023-06-05T11:50:51;21.77;58.89
67799;SHT30;54596;43.216;27.904;2023-06-05T11:53:17;21.43;60.14
67799;SHT30;54596;43.216;27.904;2023-06-05T11:55:43;21.44;60.21
67799;SHT30;54596;43.216;27.904;2023-06-05T11:58:26;21.67;60.26
67799;SHT30;54596;43.216;27.904;2023-06-05T12:01:02;21.62;59.75
67799;SHT30;54596;43.216;27.904;2023-06-05T12:03:29;21.74;58.55
67799;SHT30;54596;43.216;27.904;2023-06-05T12:05:54;21.85;57.34
67799;SHT30;54596;43.216;27.904;2023-06-05T12:10:50;21.82;57.29
67799;SHT30;54596;43.216;27.904;2023-06-05T12:13:16;21.86;58.51
67799;SHT30;54596;43.216;27.904;2023-06-05T12:15:41;21.67;60.99
67799;SHT30;54596;43.216;27.904;2023-06-05T12:18:07;21.71;59.53
67799;SHT30;54596;43.216;27.904;2023-06-05T12:20:38;21.51;54.69
67799;SHT30;54596;43.216;27.904;2023-06-05T12:23:04;21.53;58.21
67799;SHT30;54596;43.216;27.904;2023-06-05T12:25:30;21.47;60.75
67799;SHT30;54596;43.216;27.904;2023-06-05T12:27:56;21.40;59.39
67799;SHT30;54596;43.216;27.904;2023-06-05T12:30:21;21.12;61.38
67799;SHT30;54596;43.216;27.904;2023-06-05T12:32:47;21.24;62.23
67799;SHT30;54596;43.216;27.904;2023-06-05T12:35:24;21.44;61.00
67799;SHT30;54596;43.216;27.904;2023-06-05T12:37:59;21.43;58.91
67799;SHT30;54596;43.216;27.904;2023-06-05T12:40:25;21.46;59.37
67799;SHT30;54596;43.216;27.904;2023-06-05T12:42:50;21.43;59.51
67799;SHT30;54596;43.216;27.904;2023-06-05T12:45:16;21.27;60.98
67799;SHT30;54596;43.216;27.904;2023-06-05T12:47:42;21.22;61.74
67799;SHT30;54596;43.216;27.904;2023-06-05T12:50:10;21.18;60.71
67799;SHT30;54596;43.216;27.904;2023-06-05T12:52:39;21.22;60.99
67799;SHT30;54596;43.216;27.904;2023-06-05T12:55:05;21.27;59.67
67799;SHT30;54596;43.216;27.904;2023-06-05T12:57:32;21.24;61.93
67799;SHT30;54596;43.216;27.904;2023-06-05T12:59:59;21.29;61.11
67799;SHT30;54596;43.216;27.904;2023-06-05T13:02:30;21.39;59.38
67799;SHT30;54596;43.216;27.904;2023-06-05T13:04:57;21.12;56.23
67799;SHT30;54596;43.216;27.904;2023-06-05T13:07:22;21.20;58.77
67799;SHT30;54596;43.216;27.904;2023-06-05T13:09:48;21.07;57.77
67799;SHT30;54596;43.216;27.904;2023-06-05T13:12:15;21.14;58.31
67799;SHT30;54596;43.216;27.904;2023-06-05T13:14:40;21.20;58.73
67799;SHT30;54596;43.216;27.904;2023-06-05T13:17:06;21.16;60.76
67799;SHT30;54596;43.216;27.904;2023-06-05T13:19:31;21.13;60.12
67799;SHT30;54596;43.216;27.904;2023-06-05T13:21:57;21.12;60.56
67799;SHT30;54596;43.216;27.904;2023-06-05T13:24:22;20.98;60.42
67799;SHT30;54596;43.216;27.904;2023-06-05T13:26:48;21.10;61.81
67799;SHT30;54596;43.216;27.904;2023-06-05T13:29:13;21.18;62.22
67799;SHT30;54596;43.216;27.904;2023-06-05T13:31:40;20.96;63.30
67799;SHT30;54596;43.216;27.904;2023-06-05T13:34:06;20.88;58.38
67799;SHT30;54596;43.216;27.904;2023-06-05T13:36:31;20.85;59.23
67799;SHT30;54596;43.216;27.904;2023-06-05T13:38:57;20.91;62.29
67799;SHT30;54596;43.216;27.904;2023-06-05T13:41:22;20.92;62.18
67799;SHT30;54596;43.216;27.904;2023-06-05T13:43:48;20.81;62.21
67799;SHT30;54596;43.216;27.904;2023-06-05T13:46:13;20.65;62.97
67799;SHT30;54596;43.216;27.904;2023-06-05T13:48:39;20.68;63.60
67799;SHT30;54596;43.216;27.904;2023-06-05T13:51:04;20.64;64.58
67799;SHT30;54596;43.216;27.904;2023-06-05T13:53:30;20.82;65.01
67799;SHT30;54596;43.216;27.904;2023-06-05T13:56:06;20.68;63.04
67799;SHT30;54596;43.216;27.904;2023-06-05T13:58:31;20.78;63.38
67799;SHT30;54596;43.216;27.904;2023-06-05T14:00:58;20.69;62.16
67799;SHT30;54596;43.216;27.904;2023-06-05T14:03:24;20.67;60.35
67799;SHT30;54596;43.216;27.904;2023-06-05T14:05:50;20.75;60.73
67799;SHT30;54596;43.216;27.904;2023-06-05T14:08:16;20.67;61.29
67799;SHT30;54596;43.216;27.904;2023-06-05T14:10:41;20.61;62.98
67799;SHT30;54596;43.216;27.904;2023-06-05T14:13:07;20.58;62.25
67799;SHT30;54596;43.216;27.904;2023-06-05T14:15:33;20.57;61.84
67799;SHT30;54596;43.216;27.904;2023-06-05T14:18:01;20.54;61.15
67799;SHT30;54596;43.216;27.904;2023-06-05T14:20:27;20.58;61.86
67799;SHT30;54596;43.216;27.904;2023-06-05T14:22:55;20.60;60.54
67799;SHT30;54596;43.216;27.904;2023-06-05T14:25:21;20.48;61.42
67799;SHT30;54596;43.216;27.904;2023-06-05T14:27:46;20.48;62.35
67799;SHT30;54596;43.216;27.904;2023-06-05T14:30:12;20.39;60.53
67799;SHT30;54596;43.216;27.904;2023-06-05T14:32:38;20.47;62.29
67799;SHT30;54596;43.216;27.904;2023-06-05T14:35:04;20.41;63.12
67799;SHT30;54596;43.216;27.904;2023-06-05T14:37:29;20.43;61.25
67799;SHT30;54596;43.216;27.904;2023-06-05T14:39:55;20.37;62.91
67799;SHT30;54596;43.216;27.904;2023-06-05T14:42:22;20.34;62.23
67799;SHT30;54596;43.216;27.904;2023-06-05T14:44:47;20.32;61.06
67799;SHT30;54596;43.216;27.904;2023-06-05T14:47:13;20.29;61.77
67799;SHT30;54596;43.216;27.904;2023-06-05T14:49:38;20.16;61.71
67799;SHT30;54596;43.216;27.904;2023-06-05T14:52:04;20.16;62.49
67799;SHT30;54596;43.216;27.904;2023-06-05T14:54:30;20.13;62.02
67799;SHT30;54596;43.216;27.904;2023-06-05T14:56:56;20.19;62.23
67799;SHT30;54596;43.216;27.904;2023-06-05T14:59:21;20.22;62.70
67799;SHT30;54596;43.216;27.904;2023-06-05T15:01:46;20.29;59.95
67799;SHT30;54596;43.216;27.904;2023-06-05T15:04:12;20.23;57.90
67799;SHT30;54596;43.216;27.904;2023-06-05T15:06:37;20.27;58.61
67799;SHT30;54596;43.216;27.904;2023-06-05T15:09:03;20.26;59.33
67799;SHT30;54596;43.216;27.904;2023-06-05T15:11:29;20.23;57.67
67799;SHT30;54596;43.216;27.904;2023-06-05T15:13:54;20.13;59.37
67799;SHT30;54596;43.216;27.904;2023-06-05T15:16:20;20.16;59.04
67799;SHT30;54596;43.216;27.904;2023-06-05T15:18:46;20.05;58.19
67799;SHT30;54596;43.216;27.904;2023-06-05T15:21:12;20.00;58.46
67799;SHT30;54596;43.216;27.904;2023-06-05T15:23:38;20.00;57.29
67799;SHT30;54596;43.216;27.904;2023-06-05T15:26:03;19.92;57.43
67799;SHT30;54596;43.216;27.904;2023-06-05T15:28:28;20.05;58.21
67799;SHT30;54596;43.216;27.904;2023-06-05T15:30:54;20.10;58.48
67799;SHT30;54596;43.216;27.904;2023-06-05T15:33:19;20.12;57.80
67799;SHT30;54596;43.216;27.904;2023-06-05T15:35:45;20.12;58.16
67799;SHT30;54596;43.216;27.904;2023-06-05T15:38:11;20.10;58.05
67799;SHT30;54596;43.216;27.904;2023-06-05T15:40:37;20.12;57.92
67799;SHT30;54596;43.216;27.904;2023-06-05T15:43:04;20.10;57.91
67799;SHT30;54596;43.216;27.904;2023-06-05T15:45:37;20.10;58.05
67799;SHT30;54596;43.216;27.904;2023-06-05T15:48:03;20.05;55.71
67799;SHT30;54596;43.216;27.904;2023-06-05T15:50:28;20.04;55.04
67799;SHT30;54596;43.216;27.904;2023-06-05T15:52:54;20.00;54.91
67799;SHT30;54596;43.216;27.904;2023-06-05T15:55:19;19.95;55.12
67799;SHT30;54596;43.216;27.904;2023-06-05T15:57:45;19.88;56.26